createdAt,value
2017-11-15T00:00:36.865Z,8.31
2017-11-15T00:01:36.823Z,8.37
2017-11-15T00:02:36.788Z,8.31
2017-11-15T00:03:36.756Z,8.27
2017-11-15T00:04:36.717Z,8.26
2017-11-15T00:05:36.678Z,8.34
2017-11-15T00:06:36.638Z,8.37
2017-11-15T00:07:36.598Z,8.37
2017-11-15T00:08:36.570Z,8.30
2017-11-15T00:09:36.524Z,8.27
2017-11-15T00:10:36.490Z,8.37
2017-11-15T00:11:36.458Z,8.31
2017-11-15T00:12:36.416Z,8.33
2017-11-15T00:13:36.534Z,8.30
2017-11-15T00:14:36.348Z,8.27
2017-11-15T00:15:36.299Z,8.36
2017-11-15T00:16:36.266Z,8.33
2017-11-15T00:17:36.227Z,8.37
2017-11-15T00:18:36.193Z,8.38
2017-11-15T00:19:36.156Z,8.31
2017-11-15T00:20:36.119Z,8.36
2017-11-15T00:21:36.078Z,8.37
2017-11-15T00:22:36.038Z,8.34
2017-11-15T00:23:36.003Z,8.30
2017-11-15T00:24:35.967Z,8.31
2017-11-15T00:25:35.925Z,8.26
2017-11-15T00:26:35.900Z,8.30
2017-11-15T00:27:35.853Z,8.28
2017-11-15T00:28:35.814Z,8.28
2017-11-15T00:29:35.776Z,8.33
2017-11-15T00:30:35.740Z,8.33
2017-11-15T00:31:35.794Z,8.30
2017-11-15T00:32:35.677Z,8.20
2017-11-15T00:33:35.630Z,8.26
2017-11-15T00:34:35.591Z,8.28
2017-11-15T00:35:35.556Z,8.20
2017-11-15T00:36:35.520Z,8.23
2017-11-15T00:37:35.486Z,8.26
2017-11-15T00:38:35.441Z,8.27
2017-11-15T00:39:35.410Z,8.26
2017-11-15T00:40:35.368Z,8.31
2017-11-15T00:41:35.333Z,8.18
2017-11-15T00:42:35.288Z,8.28
2017-11-15T00:43:35.266Z,8.30
2017-11-15T00:44:35.217Z,8.31
2017-11-15T00:45:35.178Z,8.28
2017-11-15T00:46:35.144Z,8.28
2017-11-15T00:47:35.108Z,8.33
2017-11-15T00:48:35.068Z,8.31
2017-11-15T00:49:35.031Z,8.34
2017-11-15T00:50:35.035Z,8.37
2017-11-15T00:51:34.955Z,8.33
2017-11-15T00:52:34.919Z,8.37
2017-11-15T00:53:34.877Z,8.31
2017-11-15T00:54:34.842Z,8.27
2017-11-15T00:55:34.808Z,8.27
2017-11-15T00:56:34.780Z,8.38
2017-11-15T00:57:34.733Z,8.36
2017-11-15T00:58:34.690Z,8.28
2017-11-15T00:59:34.658Z,8.31
2017-11-15T01:00:34.620Z,8.31
2017-11-15T01:01:34.590Z,8.28
2017-11-15T01:02:34.556Z,8.26
2017-11-15T01:03:34.509Z,8.16
2017-11-15T01:04:34.467Z,8.19
2017-11-15T01:05:34.429Z,8.24
2017-11-15T01:06:34.392Z,8.24
2017-11-15T01:07:34.356Z,8.13
2017-11-15T01:08:34.328Z,8.15
2017-11-15T01:09:34.280Z,8.16
2017-11-15T01:10:34.244Z,8.15
2017-11-15T01:11:34.208Z,8.10
2017-11-15T01:12:34.179Z,8.15
2017-11-15T01:13:34.137Z,8.09
2017-11-15T01:14:34.109Z,8.08
2017-11-15T01:15:34.056Z,8.05
2017-11-15T01:16:34.020Z,8.00
2017-11-15T01:17:33.983Z,8.01
2017-11-15T01:18:33.943Z,7.98
2017-11-15T01:19:33.907Z,7.98
2017-11-15T01:20:33.870Z,8.05
2017-11-15T01:21:33.834Z,7.94
2017-11-15T01:22:33.794Z,8.03
2017-11-15T01:23:33.755Z,8.03
2017-11-15T01:24:33.719Z,8.00
2017-11-15T01:25:33.681Z,7.98
2017-11-15T01:26:33.648Z,8.01
2017-11-15T01:27:33.617Z,7.97
2017-11-15T01:28:33.572Z,7.98
2017-11-15T01:29:33.643Z,8.08
2017-11-15T01:30:33.502Z,8.05
2017-11-15T01:31:33.454Z,8.06
2017-11-15T01:32:33.418Z,8.00
2017-11-15T01:33:33.388Z,8.12
2017-11-15T01:34:33.347Z,8.00
2017-11-15T01:35:33.306Z,8.09
2017-11-15T01:36:33.267Z,8.06
2017-11-15T01:37:33.253Z,8.15
2017-11-15T01:38:33.190Z,8.08
2017-11-15T01:39:33.154Z,8.10
2017-11-15T01:40:33.118Z,8.16
2017-11-15T01:41:33.091Z,8.12
2017-11-15T01:42:33.042Z,8.10
2017-11-15T01:43:33.008Z,8.10
2017-11-15T01:44:32.971Z,8.12
2017-11-15T01:45:32.928Z,8.03
2017-11-15T01:46:32.896Z,8.15
2017-11-15T01:47:32.872Z,8.13
2017-11-15T01:48:32.817Z,8.12
2017-11-15T01:49:32.784Z,8.16
2017-11-15T01:50:32.740Z,8.16
2017-11-15T01:51:32.715Z,8.15
2017-11-15T01:52:32.719Z,8.18
2017-11-15T01:53:32.631Z,8.18
2017-11-15T01:54:32.590Z,8.16
2017-11-15T01:55:32.557Z,8.15
2017-11-15T01:56:32.524Z,8.20
2017-11-15T01:57:32.480Z,8.18
2017-11-15T01:58:32.443Z,8.20
2017-11-15T01:59:32.403Z,8.23
2017-11-15T02:00:32.371Z,8.31
2017-11-15T02:01:32.334Z,8.18
2017-11-15T02:02:32.306Z,8.28
2017-11-15T02:03:32.257Z,8.19
2017-11-15T02:04:32.222Z,8.27
2017-11-15T02:05:32.184Z,8.20
2017-11-15T02:06:32.144Z,8.20
2017-11-15T02:07:32.105Z,8.13
2017-11-15T02:08:32.074Z,8.18
2017-11-15T02:09:32.042Z,8.10
2017-11-15T02:10:31.992Z,8.13
2017-11-15T02:11:31.961Z,8.08
2017-11-15T02:12:31.922Z,8.12
2017-11-15T02:13:32.157Z,8.12
2017-11-15T02:14:31.842Z,8.10
2017-11-15T02:15:31.815Z,8.05
2017-11-15T02:16:31.772Z,8.05
2017-11-15T02:17:31.732Z,8.05
2017-11-15T02:18:32.166Z,8.06
2017-11-15T02:19:31.658Z,8.05
2017-11-15T02:20:31.622Z,8.05
2017-11-15T02:21:31.585Z,7.97
2017-11-15T02:22:31.546Z,8.01
2017-11-15T02:23:31.508Z,8.01
2017-11-15T02:24:31.470Z,8.05
2017-11-15T02:25:31.430Z,7.97
2017-11-15T02:26:31.395Z,7.88
2017-11-15T02:27:31.360Z,7.90
2017-11-15T02:28:31.320Z,7.87
2017-11-15T02:29:31.280Z,7.91
2017-11-15T02:30:31.245Z,7.95
2017-11-15T02:31:31.208Z,7.94
2017-11-15T02:32:31.169Z,8.01
2017-11-15T02:33:31.134Z,7.90
2017-11-15T02:34:31.101Z,7.91
2017-11-15T02:35:31.054Z,7.90
2017-11-15T02:36:31.017Z,7.91
2017-11-15T02:37:30.978Z,7.91
2017-11-15T02:38:30.942Z,7.88
2017-11-15T02:39:30.905Z,7.87
2017-11-15T02:40:30.866Z,7.91
2017-11-15T02:41:30.829Z,7.95
2017-11-15T02:42:30.797Z,7.91
2017-11-15T02:43:30.757Z,7.94
2017-11-15T02:44:30.717Z,7.93
2017-11-15T02:45:30.678Z,7.94
2017-11-15T02:46:30.665Z,7.98
2017-11-15T02:47:30.603Z,7.97
2017-11-15T02:48:30.635Z,7.98
2017-11-15T02:49:30.533Z,7.97
2017-11-15T02:50:30.492Z,8.08
2017-11-15T02:51:30.451Z,8.01
2017-11-15T02:52:30.412Z,8.05
2017-11-15T02:53:30.378Z,8.01
2017-11-15T02:54:30.338Z,8.03
2017-11-15T02:55:30.305Z,8.03
2017-11-15T02:56:30.271Z,8.05
2017-11-15T02:57:30.232Z,8.05
2017-11-15T02:58:30.204Z,8.03
2017-11-15T02:59:30.161Z,8.00
2017-11-15T03:00:30.113Z,8.01
2017-11-15T03:01:30.076Z,8.03
2017-11-15T03:02:30.060Z,8.01
2017-11-15T03:03:29.998Z,8.01
2017-11-15T03:04:29.959Z,7.98
2017-11-15T03:05:29.924Z,7.98
2017-11-15T03:06:29.885Z,8.03
2017-11-15T03:07:29.848Z,8.01
2017-11-15T03:08:29.819Z,8.08
2017-11-15T03:09:29.770Z,8.09
2017-11-15T03:10:29.733Z,8.01
2017-11-15T03:11:29.696Z,8.06
2017-11-15T03:12:29.657Z,8.03
2017-11-15T03:13:29.627Z,8.08
2017-11-15T03:14:29.596Z,8.10
2017-11-15T03:15:29.546Z,8.06
2017-11-15T03:16:29.508Z,8.10
2017-11-15T03:17:29.476Z,8.01
2017-11-15T03:18:29.433Z,8.10
2017-11-15T03:19:29.397Z,8.12
2017-11-15T03:20:29.360Z,8.15
2017-11-15T03:21:29.336Z,8.15
2017-11-15T03:22:29.284Z,8.12
2017-11-15T03:23:29.245Z,8.10
2017-11-15T03:24:29.209Z,8.13
2017-11-15T03:25:29.169Z,8.09
2017-11-15T03:26:29.136Z,8.16
2017-11-15T03:27:29.103Z,8.16
2017-11-15T03:28:29.064Z,8.08
2017-11-15T03:29:29.017Z,8.12
2017-11-15T03:30:28.983Z,8.15
2017-11-15T03:31:28.946Z,8.19
2017-11-15T03:32:28.909Z,8.19
2017-11-15T03:33:28.885Z,8.06
2017-11-15T03:34:28.834Z,8.12
2017-11-15T03:35:28.794Z,8.15
2017-11-15T03:36:28.762Z,8.18
2017-11-15T03:37:28.723Z,8.15
2017-11-15T03:38:28.678Z,8.15
2017-11-15T03:39:28.658Z,8.15
2017-11-15T03:40:28.610Z,8.10
2017-11-15T03:41:28.571Z,8.18
2017-11-15T03:42:28.532Z,8.13
2017-11-15T03:43:28.494Z,8.08
2017-11-15T03:44:28.461Z,8.05
2017-11-15T03:45:29.049Z,8.05
2017-11-15T03:46:28.387Z,8.06
2017-11-15T03:47:28.345Z,8.00
2017-11-15T03:48:28.306Z,8.08
2017-11-15T03:49:28.268Z,7.97
2017-11-15T03:50:28.230Z,8.06
2017-11-15T03:51:28.194Z,8.00
2017-11-15T03:52:28.165Z,8.01
2017-11-15T03:53:28.119Z,8.03
2017-11-15T03:54:28.084Z,7.98
2017-11-15T03:55:28.041Z,8.00
2017-11-15T03:56:28.011Z,8.00
2017-11-15T03:57:27.967Z,8.05
2017-11-15T03:58:27.928Z,8.03
2017-11-15T03:59:27.905Z,8.00
2017-11-15T04:00:27.856Z,8.05
2017-11-15T04:01:27.816Z,8.03
2017-11-15T04:02:28.367Z,8.01
2017-11-15T04:03:27.747Z,7.98
2017-11-15T04:04:27.702Z,8.09
2017-11-15T04:05:27.677Z,8.06
2017-11-15T04:06:27.628Z,8.06
2017-11-15T04:07:27.591Z,8.01
2017-11-15T04:08:27.557Z,8.12
2017-11-15T04:09:27.513Z,8.06
2017-11-15T04:10:27.478Z,8.06
2017-11-15T04:11:27.441Z,8.12
2017-11-15T04:12:27.412Z,8.12
2017-11-15T04:13:27.935Z,8.09
2017-11-15T04:14:27.328Z,8.12
2017-11-15T04:15:27.288Z,8.09
2017-11-15T04:16:27.262Z,8.13
2017-11-15T04:17:27.215Z,8.10
2017-11-15T04:18:27.185Z,8.10
2017-11-15T04:19:27.148Z,8.15
2017-11-15T04:20:27.103Z,8.18
2017-11-15T04:21:27.062Z,8.13
2017-11-15T04:22:27.034Z,8.16
2017-11-15T04:23:26.988Z,8.13
2017-11-15T04:24:26.953Z,8.18
2017-11-15T04:25:26.914Z,8.15
2017-11-15T04:26:26.878Z,8.13
2017-11-15T04:27:26.839Z,8.15
2017-11-15T04:28:26.834Z,8.15
2017-11-15T04:29:26.769Z,8.13
2017-11-15T04:30:26.727Z,8.13
2017-11-15T04:31:26.694Z,8.15
2017-11-15T04:32:26.654Z,8.12
2017-11-15T04:33:26.612Z,8.10
2017-11-15T04:34:26.578Z,8.12
2017-11-15T04:35:26.536Z,8.10
2017-11-15T04:36:26.508Z,8.15
2017-11-15T04:37:26.463Z,8.12
2017-11-15T04:38:26.423Z,8.13
2017-11-15T04:39:26.387Z,8.06
2017-11-15T04:40:26.353Z,8.16
2017-11-15T04:41:26.314Z,8.13
2017-11-15T04:42:26.281Z,8.12
2017-11-15T04:43:26.847Z,8.15
2017-11-15T04:44:26.201Z,8.12
2017-11-15T04:45:26.166Z,8.12
2017-11-15T04:46:26.128Z,8.12
2017-11-15T04:47:26.090Z,8.16
2017-11-15T04:48:26.050Z,8.15
2017-11-15T04:49:26.011Z,8.13
2017-11-15T04:50:25.987Z,8.03
2017-11-15T04:51:25.952Z,8.12
2017-11-15T04:52:25.904Z,8.18
2017-11-15T04:53:25.862Z,8.08
2017-11-15T04:54:25.825Z,8.16
2017-11-15T04:55:25.786Z,8.13
2017-11-15T04:56:25.761Z,8.18
2017-11-15T04:57:25.711Z,8.19
2017-11-15T04:58:25.674Z,8.15
2017-11-15T04:59:25.640Z,8.16
2017-11-15T05:00:25.599Z,8.15
2017-11-15T05:01:25.562Z,8.13
2017-11-15T05:02:25.528Z,8.09
2017-11-15T05:03:25.497Z,8.13
2017-11-15T05:04:25.451Z,8.09
2017-11-15T05:05:25.419Z,8.08
2017-11-15T05:06:25.374Z,8.06
2017-11-15T05:07:25.335Z,8.09
2017-11-15T05:08:25.404Z,8.12
2017-11-15T05:09:25.260Z,8.05
2017-11-15T05:10:25.229Z,8.09
2017-11-15T05:11:25.191Z,8.03
2017-11-15T05:12:25.146Z,8.03
2017-11-15T05:13:25.109Z,8.00
2017-11-15T05:14:25.072Z,8.06
2017-11-15T05:15:25.039Z,8.01
2017-11-15T05:16:25.015Z,8.01
2017-11-15T05:17:24.963Z,7.98
2017-11-15T05:18:24.923Z,7.95
2017-11-15T05:19:24.885Z,7.95
2017-11-15T05:20:24.853Z,8.03
2017-11-15T05:21:24.810Z,8.03
2017-11-15T05:22:24.797Z,8.01
2017-11-15T05:23:24.736Z,8.05
2017-11-15T05:24:24.699Z,8.03
2017-11-15T05:25:24.667Z,7.97
2017-11-15T05:26:24.622Z,8.06
2017-11-15T05:27:24.593Z,8.00
2017-11-15T05:28:25.013Z,8.06
2017-11-15T05:29:24.516Z,8.03
2017-11-15T05:30:24.470Z,8.10
2017-11-15T05:31:24.440Z,8.09
2017-11-15T05:32:24.402Z,8.06
2017-11-15T05:33:24.358Z,8.09
2017-11-15T05:34:24.321Z,8.06
2017-11-15T05:35:24.287Z,8.09
2017-11-15T05:36:24.245Z,8.09
2017-11-15T05:37:24.221Z,8.01
2017-11-15T05:38:24.170Z,8.01
2017-11-15T05:39:24.138Z,7.98
2017-11-15T05:40:24.448Z,8.01
2017-11-15T05:41:24.071Z,8.00
2017-11-15T05:42:24.023Z,8.00
2017-11-15T05:43:23.984Z,8.01
2017-11-15T05:44:23.946Z,8.01
2017-11-15T05:45:23.909Z,8.00
2017-11-15T05:46:23.874Z,8.03
2017-11-15T05:47:23.832Z,7.98
2017-11-15T05:48:23.832Z,8.10
2017-11-15T05:49:23.759Z,8.01
2017-11-15T05:50:23.720Z,8.06
2017-11-15T05:51:23.686Z,8.06
2017-11-15T05:52:23.647Z,8.00
2017-11-15T05:53:23.605Z,8.03
2017-11-15T05:54:23.574Z,8.10
2017-11-15T05:55:23.535Z,8.15
2017-11-15T05:56:23.498Z,8.13
2017-11-15T05:57:23.456Z,8.10
2017-11-15T05:58:23.421Z,8.09
2017-11-15T05:59:23.385Z,8.08
2017-11-15T06:00:23.353Z,8.10
2017-11-15T06:01:23.309Z,8.12
2017-11-15T06:02:23.270Z,8.15
2017-11-15T06:03:23.234Z,8.10
2017-11-15T06:04:23.199Z,8.19
2017-11-15T06:05:23.162Z,8.15
2017-11-15T06:06:23.124Z,8.10
2017-11-15T06:07:23.080Z,8.03
2017-11-15T06:08:23.103Z,8.01
2017-11-15T06:09:23.018Z,8.05
2017-11-15T06:10:23.010Z,8.05
2017-11-15T06:11:22.999Z,8.08
2017-11-15T06:12:22.962Z,8.10
2017-11-15T06:13:22.882Z,8.06
2017-11-15T06:14:22.861Z,7.98
2017-11-15T06:15:22.862Z,8.00
2017-11-15T06:16:22.788Z,8.05
2017-11-15T06:17:22.778Z,7.97
2017-11-15T06:18:22.676Z,8.05
2017-11-15T06:19:23.290Z,8.05
2017-11-15T06:20:22.601Z,7.93
2017-11-15T06:21:22.558Z,7.94
2017-11-15T06:22:22.647Z,7.87
2017-11-15T06:23:22.514Z,7.87
2017-11-15T06:24:22.449Z,7.88
2017-11-15T06:25:22.474Z,7.87
2017-11-15T06:26:22.523Z,7.80
2017-11-15T06:27:22.462Z,7.77
2017-11-15T06:28:22.327Z,7.80
2017-11-15T06:29:22.331Z,7.85
2017-11-15T06:30:22.231Z,7.80
2017-11-15T06:31:22.175Z,7.79
2017-11-15T06:32:22.139Z,7.76
2017-11-15T06:33:22.165Z,7.79
2017-11-15T06:34:22.077Z,7.77
2017-11-15T06:35:22.029Z,7.77
2017-11-15T06:36:22.069Z,7.75
2017-11-15T06:37:22.014Z,7.69
2017-11-15T06:38:21.913Z,7.73
2017-11-15T06:39:21.877Z,7.79
2017-11-15T06:40:21.840Z,7.79
2017-11-15T06:41:21.828Z,7.72
2017-11-15T06:42:21.763Z,7.76
2017-11-15T06:43:21.724Z,7.79
2017-11-15T06:44:21.685Z,7.77
2017-11-15T06:45:21.647Z,7.76
2017-11-15T06:46:21.737Z,7.73
2017-11-15T06:47:21.723Z,7.63
2017-11-15T06:48:21.535Z,7.60
2017-11-15T06:49:21.496Z,7.77
2017-11-15T06:50:21.460Z,7.72
2017-11-15T06:51:21.420Z,7.79
2017-11-15T06:52:21.382Z,7.79
2017-11-15T06:53:21.351Z,7.72
2017-11-15T06:54:21.307Z,7.69
2017-11-15T06:55:21.268Z,7.73
2017-11-15T06:56:21.232Z,7.85
2017-11-15T06:57:21.191Z,7.75
2017-11-15T06:58:21.159Z,7.83
2017-11-15T06:59:21.121Z,7.76
2017-11-15T07:00:21.077Z,7.75
2017-11-15T07:01:21.038Z,7.79
2017-11-15T07:02:21.000Z,7.73
2017-11-15T07:03:20.962Z,7.70
2017-11-15T07:04:20.924Z,7.70
2017-11-15T07:05:20.890Z,7.70
2017-11-15T07:06:20.848Z,7.80
2017-11-15T07:07:20.812Z,7.82
2017-11-15T07:08:20.775Z,7.85
2017-11-15T07:09:20.748Z,7.73
2017-11-15T07:10:20.697Z,7.77
2017-11-15T07:11:20.667Z,7.80
2017-11-15T07:12:20.620Z,7.82
2017-11-15T07:13:20.581Z,7.80
2017-11-15T07:14:20.547Z,7.79
2017-11-15T07:15:20.509Z,7.80
2017-11-15T07:16:20.469Z,7.82
2017-11-15T07:17:20.439Z,7.79
2017-11-15T07:18:20.390Z,7.82
2017-11-15T07:19:20.356Z,7.90
2017-11-15T07:20:20.387Z,7.76
2017-11-15T07:21:20.290Z,7.82
2017-11-15T07:22:20.242Z,7.80
2017-11-15T07:23:20.199Z,7.79
2017-11-15T07:24:20.162Z,7.87
2017-11-15T07:25:20.135Z,7.79
2017-11-15T07:26:20.099Z,7.80
2017-11-15T07:27:20.052Z,7.82
2017-11-15T07:28:20.013Z,7.77
2017-11-15T07:29:19.973Z,7.82
2017-11-15T07:30:19.938Z,7.80
2017-11-15T07:31:19.899Z,7.77
2017-11-15T07:32:20.009Z,7.77
2017-11-15T07:33:19.825Z,7.76
2017-11-15T07:34:19.786Z,7.63
2017-11-15T07:35:19.748Z,7.76
2017-11-15T07:36:19.708Z,7.73
2017-11-15T07:37:19.673Z,7.82
2017-11-15T07:38:19.632Z,7.72
2017-11-15T07:39:19.596Z,7.79
2017-11-15T07:40:19.555Z,7.93
2017-11-15T07:41:19.515Z,8.05
2017-11-15T07:42:19.483Z,7.97
2017-11-15T07:43:19.441Z,8.05
2017-11-15T07:44:19.406Z,8.09
2017-11-15T07:45:19.380Z,8.23
2017-11-15T07:46:19.330Z,8.26
2017-11-15T07:47:19.298Z,8.27
2017-11-15T07:48:19.252Z,8.41
2017-11-15T07:49:19.220Z,8.49
2017-11-15T07:50:19.184Z,8.46
2017-11-15T07:51:19.156Z,8.52
2017-11-15T07:52:19.109Z,8.64
2017-11-15T07:53:19.072Z,8.67
2017-11-15T07:54:19.038Z,9.08
2017-11-15T07:55:18.997Z,9.39
2017-11-15T07:56:19.185Z,9.61
2017-11-15T07:57:18.930Z,9.87
2017-11-15T07:58:18.892Z,10.12
2017-11-15T07:59:19.185Z,10.30
2017-11-15T08:00:18.825Z,10.26
2017-11-15T08:01:18.867Z,10.49
2017-11-15T08:02:18.755Z,10.33
2017-11-15T08:03:18.721Z,10.40
2017-11-15T08:04:18.692Z,10.16
2017-11-15T08:05:18.653Z,10.10
2017-11-15T08:06:18.624Z,9.84
2017-11-15T08:07:18.585Z,9.80
2017-11-15T08:08:18.551Z,9.59
2017-11-15T08:09:18.520Z,9.69
2017-11-15T08:10:18.493Z,9.50
2017-11-15T08:11:18.448Z,9.46
2017-11-15T08:12:18.410Z,9.29
2017-11-15T08:13:18.378Z,9.32
2017-11-15T08:14:18.342Z,9.18
2017-11-15T08:15:18.307Z,9.19
2017-11-15T08:16:18.280Z,9.18
2017-11-15T08:17:18.259Z,9.14
2017-11-15T08:18:18.202Z,9.11
2017-11-15T08:19:18.167Z,9.11
2017-11-15T08:20:18.130Z,9.10
2017-11-15T08:21:18.092Z,9.08
2017-11-15T08:22:18.063Z,9.02
2017-11-15T08:23:18.025Z,9.06
2017-11-15T08:24:17.986Z,9.08
2017-11-15T08:25:18.099Z,9.10
2017-11-15T08:26:17.915Z,9.14
2017-11-15T08:27:17.878Z,9.14
2017-11-15T08:28:17.844Z,9.11
2017-11-15T08:29:17.923Z,9.10
2017-11-15T08:30:17.770Z,9.14
2017-11-15T08:31:17.737Z,9.19
2017-11-15T08:32:17.741Z,9.23
2017-11-15T08:33:17.660Z,9.28
2017-11-15T08:34:17.634Z,9.37
2017-11-15T08:35:17.692Z,9.44
2017-11-15T08:36:17.553Z,9.36
2017-11-15T08:37:17.521Z,9.39
2017-11-15T08:38:17.586Z,9.40
2017-11-15T08:39:17.449Z,9.36
2017-11-15T08:40:17.410Z,9.46
2017-11-15T08:41:17.381Z,9.40
2017-11-15T08:42:17.342Z,9.41
2017-11-15T08:43:17.302Z,9.34
2017-11-15T08:44:17.269Z,9.28
2017-11-15T08:45:17.228Z,9.25
2017-11-15T08:46:17.197Z,9.21
2017-11-15T08:47:17.160Z,9.06
2017-11-15T08:48:17.133Z,9.18
2017-11-15T08:49:17.085Z,9.11
2017-11-15T08:50:17.052Z,9.14
2017-11-15T08:51:17.026Z,9.16
2017-11-15T08:52:16.980Z,9.14
2017-11-15T08:53:16.942Z,9.06
2017-11-15T08:54:16.908Z,9.14
2017-11-15T08:55:16.878Z,9.16
2017-11-15T08:56:16.832Z,9.23
2017-11-15T08:57:16.794Z,9.19
2017-11-15T08:58:16.759Z,9.25
2017-11-15T08:59:16.750Z,9.25
2017-11-15T09:00:16.691Z,9.29
2017-11-15T09:01:16.650Z,9.21
2017-11-15T09:02:16.608Z,9.28
2017-11-15T09:03:16.577Z,9.23
2017-11-15T09:04:16.542Z,9.28
2017-11-15T09:05:16.501Z,9.25
2017-11-15T09:06:16.465Z,9.21
2017-11-15T09:07:16.440Z,9.28
2017-11-15T09:08:16.394Z,9.29
2017-11-15T09:09:16.360Z,9.22
2017-11-15T09:10:16.336Z,9.22
2017-11-15T09:11:16.285Z,9.23
2017-11-15T09:12:16.248Z,9.23
2017-11-15T09:13:16.217Z,9.21
2017-11-15T09:14:17.021Z,9.21
2017-11-15T09:15:16.138Z,9.21
2017-11-15T09:16:16.103Z,9.18
2017-11-15T09:17:16.065Z,9.21
2017-11-15T09:18:16.032Z,9.23
2017-11-15T09:19:15.991Z,9.19
2017-11-15T09:20:15.953Z,9.18
2017-11-15T09:21:15.917Z,9.18
2017-11-15T09:22:15.879Z,9.19
2017-11-15T09:23:15.843Z,9.06
2017-11-15T09:24:15.808Z,9.18
2017-11-15T09:25:15.769Z,9.16
2017-11-15T09:26:15.732Z,9.13
2017-11-15T09:27:15.705Z,9.04
2017-11-15T09:28:15.661Z,9.21
2017-11-15T09:29:15.625Z,9.16
2017-11-15T09:30:15.586Z,9.13
2017-11-15T09:31:15.550Z,9.14
2017-11-15T09:32:15.511Z,9.18
2017-11-15T09:33:15.477Z,9.10
2017-11-15T09:34:15.438Z,9.11
2017-11-15T09:35:15.398Z,9.19
2017-11-15T09:36:15.372Z,9.04
2017-11-15T09:37:15.328Z,9.13
2017-11-15T09:38:15.290Z,9.08
2017-11-15T09:39:15.255Z,8.99
2017-11-15T09:40:15.226Z,9.00
2017-11-15T09:41:15.180Z,8.97
2017-11-15T09:42:15.143Z,9.02
2017-11-15T09:43:15.105Z,8.92
2017-11-15T09:44:15.070Z,8.97
2017-11-15T09:45:15.077Z,9.08
2017-11-15T09:46:14.992Z,9.08
2017-11-15T09:47:14.959Z,9.08
2017-11-15T09:48:14.925Z,9.18
2017-11-15T09:49:14.881Z,9.13
2017-11-15T09:50:14.847Z,9.14
2017-11-15T09:51:14.874Z,9.14
2017-11-15T09:52:14.774Z,9.14
2017-11-15T09:53:14.740Z,9.10
2017-11-15T09:54:14.701Z,9.22
2017-11-15T09:55:14.663Z,9.22
2017-11-15T09:56:14.634Z,9.21
2017-11-15T09:57:14.585Z,9.31
2017-11-15T09:58:14.552Z,9.26
2017-11-15T09:59:14.522Z,9.32
2017-11-15T10:00:14.474Z,9.36
2017-11-15T10:01:14.441Z,9.40
2017-11-15T10:02:14.408Z,9.41
2017-11-15T10:03:14.366Z,9.34
2017-11-15T10:04:14.331Z,9.31
2017-11-15T10:05:14.348Z,9.37
2017-11-15T10:06:14.268Z,9.48
2017-11-15T10:07:14.219Z,9.41
2017-11-15T10:08:14.183Z,9.36
2017-11-15T10:09:14.142Z,9.37
2017-11-15T10:10:14.109Z,9.43
2017-11-15T10:11:14.076Z,9.46
2017-11-15T10:12:14.038Z,9.39
2017-11-15T10:13:13.998Z,9.48
2017-11-15T10:14:13.965Z,9.41
2017-11-15T10:15:13.927Z,9.56
2017-11-15T10:16:13.886Z,9.50
2017-11-15T10:17:13.853Z,9.58
2017-11-15T10:18:13.825Z,9.62
2017-11-15T10:19:13.779Z,9.50
2017-11-15T10:20:13.742Z,9.65
2017-11-15T10:21:13.706Z,9.62
2017-11-15T10:22:13.671Z,9.74
2017-11-15T10:23:13.637Z,9.69
2017-11-15T10:24:13.603Z,9.74
2017-11-15T10:25:13.563Z,9.79
2017-11-15T10:26:13.523Z,9.79
2017-11-15T10:27:13.488Z,9.92
2017-11-15T10:28:13.450Z,9.87
2017-11-15T10:29:13.415Z,9.89
2017-11-15T10:30:13.380Z,9.87
2017-11-15T10:31:13.341Z,9.87
2017-11-15T10:32:13.305Z,9.87
2017-11-15T10:33:13.269Z,9.73
2017-11-15T10:34:13.233Z,9.80
2017-11-15T10:35:13.836Z,9.74
2017-11-15T10:36:13.164Z,9.83
2017-11-15T10:37:13.123Z,9.80
2017-11-15T10:38:13.088Z,9.86
2017-11-15T10:39:13.052Z,9.84
2017-11-15T10:40:13.016Z,9.86
2017-11-15T10:41:12.978Z,9.95
2017-11-15T10:42:12.946Z,9.95
2017-11-15T10:43:12.905Z,9.95
2017-11-15T10:44:12.871Z,9.95
2017-11-15T10:45:12.834Z,9.95
2017-11-15T10:46:12.797Z,9.92
2017-11-15T10:47:12.761Z,10.07
2017-11-15T10:48:12.729Z,10.12
2017-11-15T10:49:12.688Z,10.07
2017-11-15T10:50:13.134Z,10.10
2017-11-15T10:51:12.616Z,10.10
2017-11-15T10:52:12.581Z,10.10
2017-11-15T10:53:12.546Z,10.13
2017-11-15T10:54:12.509Z,10.20
2017-11-15T10:55:12.475Z,10.10
2017-11-15T10:56:12.435Z,10.15
2017-11-15T10:57:12.399Z,10.17
2017-11-15T10:58:12.366Z,10.20
2017-11-15T10:59:12.328Z,10.15
2017-11-15T11:00:12.289Z,10.19
2017-11-15T11:01:12.255Z,10.22
2017-11-15T11:02:12.218Z,10.23
2017-11-15T11:03:12.181Z,10.22
2017-11-15T11:04:12.148Z,10.41
2017-11-15T11:05:12.119Z,10.26
2017-11-15T11:06:12.076Z,10.26
2017-11-15T11:07:12.036Z,10.41
2017-11-15T11:08:12.016Z,10.38
2017-11-15T11:09:11.968Z,10.37
2017-11-15T11:10:11.932Z,10.40
2017-11-15T11:11:11.898Z,10.46
2017-11-15T11:12:11.861Z,10.46
2017-11-15T11:13:11.824Z,10.51
2017-11-15T11:14:11.790Z,10.51
2017-11-15T11:15:11.753Z,10.51
2017-11-15T11:16:11.717Z,10.49
2017-11-15T11:17:11.688Z,10.35
2017-11-15T11:18:11.661Z,10.35
2017-11-15T11:19:11.609Z,10.40
2017-11-15T11:20:11.574Z,10.35
2017-11-15T11:21:11.540Z,10.41
2017-11-15T11:22:11.533Z,10.42
2017-11-15T11:23:11.467Z,10.37
2017-11-15T11:24:11.431Z,10.37
2017-11-15T11:25:11.395Z,10.51
2017-11-15T11:26:11.356Z,10.42
2017-11-15T11:27:11.327Z,10.46
2017-11-15T11:28:11.290Z,10.44
2017-11-15T11:29:11.263Z,10.42
2017-11-15T11:30:11.221Z,10.57
2017-11-15T11:31:11.177Z,10.51
2017-11-15T11:32:11.148Z,10.57
2017-11-15T11:33:11.113Z,10.51
2017-11-15T11:34:11.075Z,10.54
2017-11-15T11:35:11.046Z,10.61
2017-11-15T11:36:11.005Z,10.74
2017-11-15T11:37:10.970Z,10.64
2017-11-15T11:38:10.933Z,10.71
2017-11-15T11:39:10.900Z,10.81
2017-11-15T11:40:10.862Z,10.89
2017-11-15T11:41:10.844Z,10.90
2017-11-15T11:42:10.792Z,10.84
2017-11-15T11:43:10.757Z,10.86
2017-11-15T11:44:10.722Z,10.87
2017-11-15T11:45:10.688Z,10.89
2017-11-15T11:46:10.650Z,10.92
2017-11-15T11:47:10.618Z,10.97
2017-11-15T11:48:10.583Z,10.97
2017-11-15T11:49:10.547Z,11.23
2017-11-15T11:50:10.596Z,11.02
2017-11-15T11:51:10.538Z,11.15
2017-11-15T11:52:10.442Z,11.25
2017-11-15T11:53:10.407Z,11.29
2017-11-15T11:54:10.831Z,11.37
2017-11-15T11:55:10.338Z,11.30
2017-11-15T11:56:10.303Z,11.48
2017-11-15T11:57:10.272Z,11.60
2017-11-15T11:58:10.234Z,11.66
2017-11-15T11:59:10.198Z,11.72
2017-11-15T12:00:10.165Z,11.81
2017-11-15T12:01:10.132Z,11.83
2017-11-15T12:02:10.096Z,11.97
2017-11-15T12:03:10.070Z,11.90
2017-11-15T12:04:10.032Z,11.97
2017-11-15T12:05:09.992Z,11.94
2017-11-15T12:06:09.958Z,12.09
2017-11-15T12:07:09.941Z,11.97
2017-11-15T12:08:09.890Z,11.90
2017-11-15T12:09:09.858Z,11.97
2017-11-15T12:10:10.043Z,12.00
2017-11-15T12:11:09.787Z,11.99
2017-11-15T12:12:09.760Z,12.07
2017-11-15T12:13:09.720Z,12.17
2017-11-15T12:14:09.685Z,12.12
2017-11-15T12:15:09.682Z,12.12
2017-11-15T12:16:09.619Z,12.18
2017-11-15T12:17:09.582Z,12.22
2017-11-15T12:18:09.554Z,12.15
2017-11-15T12:19:09.517Z,12.04
2017-11-15T12:20:09.482Z,12.12
2017-11-15T12:21:09.453Z,12.04
2017-11-15T12:22:09.413Z,12.10
2017-11-15T12:23:09.384Z,12.12
2017-11-15T12:24:09.347Z,12.13
2017-11-15T12:25:09.313Z,12.12
2017-11-15T12:26:09.278Z,12.10
2017-11-15T12:27:09.249Z,12.04
2017-11-15T12:28:09.212Z,12.07
2017-11-15T12:29:09.177Z,12.02
2017-11-15T12:30:09.144Z,12.06
2017-11-15T12:31:09.113Z,12.07
2017-11-15T12:32:09.077Z,12.09
2017-11-15T12:33:09.055Z,12.07
2017-11-15T12:34:09.006Z,12.15
2017-11-15T12:35:08.974Z,12.09
2017-11-15T12:36:08.940Z,12.12
2017-11-15T12:37:08.902Z,12.10
2017-11-15T12:38:08.871Z,12.15
2017-11-15T12:39:08.839Z,12.20
2017-11-15T12:40:08.812Z,12.21
2017-11-15T12:41:08.768Z,12.25
2017-11-15T12:42:08.735Z,12.28
2017-11-15T12:43:08.701Z,12.28
2017-11-15T12:44:08.667Z,12.39
2017-11-15T12:45:08.634Z,12.35
2017-11-15T12:46:08.599Z,12.35
2017-11-15T12:47:08.564Z,12.37
2017-11-15T12:48:08.533Z,12.37
2017-11-15T12:49:08.497Z,12.37
2017-11-15T12:50:08.463Z,12.37
2017-11-15T12:51:08.430Z,12.36
2017-11-15T12:52:08.405Z,12.31
2017-11-15T12:53:08.360Z,12.42
2017-11-15T12:54:08.338Z,12.36
2017-11-15T12:55:08.302Z,12.31
2017-11-15T12:56:08.259Z,12.36
2017-11-15T12:57:08.223Z,12.36
2017-11-15T12:58:08.190Z,12.36
2017-11-15T12:59:08.168Z,12.47
2017-11-15T13:00:08.121Z,12.47
2017-11-15T13:01:08.085Z,12.53
2017-11-15T13:02:08.052Z,12.55
2017-11-15T13:03:08.019Z,12.53
2017-11-15T13:04:07.988Z,12.67
2017-11-15T13:05:07.956Z,12.62
2017-11-15T13:06:07.916Z,12.62
2017-11-15T13:07:07.885Z,12.62
2017-11-15T13:08:08.305Z,12.61
2017-11-15T13:09:07.820Z,12.75
2017-11-15T13:10:07.780Z,12.70
2017-11-15T13:11:07.748Z,12.61
2017-11-15T13:12:07.711Z,12.78
2017-11-15T13:13:07.679Z,12.78